createdAt,value
2022-11-06T00:00:31.876Z,6.93
2022-11-06T00:03:02.082Z,6.82
2022-11-06T00:05:47.969Z,7.72
2022-11-06T00:08:16.580Z,7.10
2022-11-06T00:10:44.724Z,7.93
2022-11-06T00:13:12.721Z,7.28
2022-11-06T00:15:40.822Z,7.95
2022-11-06T00:18:10.444Z,7.30
2022-11-06T00:20:38.814Z,7.63
2022-11-06T00:23:06.853Z,7.68
2022-11-06T00:25:34.911Z,6.88
2022-11-06T00:28:02.849Z,7.75
2022-11-06T00:30:30.814Z,7.07
2022-11-06T00:32:59.239Z,7.97
2022-11-06T00:35:28.613Z,8.18
2022-11-06T00:37:57.200Z,7.55
2022-11-06T00:40:25.174Z,8.25
2022-11-06T00:42:57.326Z,7.80
2022-11-06T00:45:26.211Z,7.47
2022-11-06T00:47:54.184Z,6.97
2022-11-06T00:50:26.540Z,7.45
2022-11-06T00:52:56.285Z,7.57
2022-11-06T00:55:24.358Z,7.55
2022-11-06T00:57:52.526Z,7.40
2022-11-06T01:00:21.013Z,7.68
2022-11-06T01:02:49.244Z,6.90
2022-11-06T01:05:17.877Z,6.40
2022-11-06T01:07:45.803Z,7.10
2022-11-06T01:10:15.189Z,6.10
2022-11-06T01:12:43.418Z,6.50
2022-11-06T01:15:13.103Z,6.32
2022-11-06T01:17:41.061Z,6.45
2022-11-06T01:20:10.181Z,5.72
2022-11-06T01:22:38.326Z,6.25
2022-11-06T01:25:07.609Z,6.07
2022-11-06T01:27:37.333Z,6.75
2022-11-06T01:30:06.435Z,6.30
2022-11-06T01:32:35.639Z,6.97
2022-11-06T01:35:04.107Z,8.15
2022-11-06T01:37:32.100Z,7.40
2022-11-06T01:40:00.070Z,6.40
2022-11-06T01:42:28.062Z,7.03
2022-11-06T01:45:30.713Z,6.82
2022-11-06T01:47:58.815Z,7.13
2022-11-06T01:50:27.979Z,6.53
2022-11-06T01:52:56.826Z,7.57
2022-11-06T01:55:27.507Z,7.20
2022-11-06T01:57:56.783Z,7.72
2022-11-06T02:00:24.848Z,6.40
2022-11-06T02:02:54.423Z,7.00
2022-11-06T02:05:22.487Z,7.13
2022-11-06T02:07:50.578Z,7.22
2022-11-06T02:10:18.879Z,6.80
2022-11-06T02:12:58.014Z,6.68
2022-11-06T02:15:35.496Z,6.03
2022-11-06T02:18:18.081Z,6.03
2022-11-06T02:20:57.172Z,4.43
2022-11-06T02:23:48.952Z,5.22
2022-11-06T02:26:33.520Z,4.90
2022-11-06T02:29:08.980Z,5.15
2022-11-06T02:31:42.423Z,4.88
2022-11-06T02:34:16.384Z,5.13
2022-11-06T02:36:52.552Z,4.35
2022-11-06T02:39:23.338Z,4.95
2022-11-06T02:41:53.678Z,4.28
2022-11-06T02:44:27.506Z,3.95
2022-11-06T02:46:59.078Z,4.38
2022-11-06T02:49:33.325Z,4.75
2022-11-06T02:52:08.021Z,4.72
2022-11-06T02:54:39.738Z,4.20
2022-11-06T02:57:15.505Z,4.32
2022-11-06T02:59:51.213Z,5.00
2022-11-06T03:02:24.264Z,5.10
2022-11-06T03:04:59.362Z,4.82
2022-11-06T03:07:35.648Z,4.80
2022-11-06T03:10:04.118Z,4.75
2022-11-06T03:12:34.869Z,4.38
2022-11-06T03:15:15.847Z,5.00
2022-11-06T03:17:48.042Z,5.10
2022-11-06T03:20:22.534Z,3.97
2022-11-06T03:22:55.979Z,4.75
2022-11-06T03:25:28.289Z,4.63
2022-11-06T03:28:04.409Z,4.87
2022-11-06T03:30:37.504Z,5.18
2022-11-06T03:33:12.663Z,4.70
2022-11-06T03:35:45.327Z,4.72
2022-11-06T03:38:18.064Z,3.75
2022-11-06T03:40:50.962Z,4.45
2022-11-06T03:43:22.975Z,4.25
2022-11-06T03:45:54.599Z,4.25
2022-11-06T03:48:29.456Z,4.13
2022-11-06T03:51:03.077Z,4.13
2022-11-06T03:53:37.749Z,3.67
2022-11-06T03:56:11.535Z,4.38
2022-11-06T03:58:43.843Z,4.03
2022-11-06T04:01:16.135Z,3.67
2022-11-06T04:03:48.963Z,3.83
2022-11-06T04:06:20.996Z,3.50
2022-11-06T04:09:08.590Z,3.47
2022-11-06T04:11:56.546Z,3.47
2022-11-06T04:14:28.119Z,3.97
2022-11-06T04:17:02.330Z,3.97
2022-11-06T04:19:30.287Z,4.20
2022-11-06T04:22:19.153Z,3.92
2022-11-06T04:25:18.678Z,4.25
2022-11-06T04:28:03.451Z,3.72
2022-11-06T04:33:08.910Z,4.35
2022-11-06T04:35:52.036Z,4.28
2022-11-06T04:38:27.869Z,4.20
2022-11-06T04:41:04.634Z,3.95
2022-11-06T04:43:38.262Z,4.00
2022-11-06T04:46:09.271Z,3.88
2022-11-06T04:48:39.555Z,3.97
2022-11-06T04:51:11.421Z,4.25
2022-11-06T04:53:40.660Z,4.28
2022-11-06T04:56:13.029Z,4.95
2022-11-06T04:58:41.177Z,3.30
2022-11-06T05:01:10.061Z,4.40
2022-11-06T05:03:39.347Z,4.18
2022-11-06T05:06:07.830Z,4.05
2022-11-06T05:08:35.778Z,4.07
2022-11-06T05:11:03.742Z,3.55
2022-11-06T05:13:31.709Z,3.88
2022-11-06T05:16:00.577Z,3.42
2022-11-06T05:18:29.324Z,3.97
2022-11-06T05:21:19.807Z,3.58
2022-11-06T05:23:47.827Z,3.53
2022-11-06T05:26:15.993Z,3.50
2022-11-06T05:28:43.929Z,3.70
2022-11-06T05:31:11.951Z,3.40
2022-11-06T05:33:39.929Z,3.63
2022-11-06T05:36:10.046Z,3.25
2022-11-06T05:38:37.989Z,3.90
2022-11-06T05:41:06.302Z,3.65
2022-11-06T05:43:34.289Z,4.35
2022-11-06T05:46:02.243Z,4.40
2022-11-06T05:48:30.898Z,4.20
2022-11-06T05:51:02.006Z,4.20
2022-11-06T05:53:33.686Z,4.43
2022-11-06T05:56:01.795Z,4.30
2022-11-06T05:58:30.202Z,4.50
2022-11-06T06:00:59.048Z,4.22
2022-11-06T06:03:27.686Z,4.50
2022-11-06T06:05:55.674Z,4.53
2022-11-06T06:08:23.653Z,5.05
2022-11-06T06:10:53.018Z,5.50
2022-11-06T06:13:20.968Z,5.78
2022-11-06T06:15:57.012Z,6.20
2022-11-06T06:18:25.315Z,5.07
2022-11-06T06:20:53.284Z,5.50
2022-11-06T06:23:21.223Z,5.53
2022-11-06T06:25:49.147Z,5.20
2022-11-06T06:28:18.441Z,5.43
2022-11-06T06:30:46.399Z,5.18
2022-11-06T06:33:14.360Z,4.68
2022-11-06T06:35:42.394Z,4.80
2022-11-06T06:38:11.984Z,6.00
2022-11-06T06:40:40.198Z,5.22
2022-11-06T06:43:08.145Z,5.30
2022-11-06T06:45:37.472Z,5.45
2022-11-06T06:48:06.117Z,5.43
2022-11-06T06:50:34.346Z,4.75
2022-11-06T06:53:02.409Z,5.38
2022-11-06T06:55:30.373Z,5.85
2022-11-06T06:57:59.223Z,5.57
2022-11-06T07:00:27.777Z,6.30
2022-11-06T07:02:57.101Z,5.45
2022-11-06T07:05:25.478Z,5.55
2022-11-06T07:07:53.383Z,5.18
2022-11-06T07:10:21.620Z,5.28
2022-11-06T07:12:49.778Z,5.88
2022-11-06T07:15:18.010Z,6.13
2022-11-06T07:17:46.044Z,5.18
2022-11-06T07:20:15.343Z,5.15
2022-11-06T07:22:43.431Z,4.82
2022-11-06T07:25:11.917Z,5.40
2022-11-06T07:27:41.375Z,5.32
2022-11-06T07:30:10.551Z,5.28
2022-11-06T07:32:38.500Z,5.15
2022-11-06T07:35:07.504Z,5.35
2022-11-06T07:37:37.057Z,5.22
2022-11-06T07:40:07.198Z,4.85
2022-11-06T07:42:38.271Z,5.78
2022-11-06T07:45:10.068Z,5.45
2022-11-06T07:47:38.019Z,4.68
2022-11-06T07:50:06.785Z,5.50
2022-11-06T07:52:36.346Z,5.18
2022-11-06T07:55:04.567Z,5.57
2022-11-06T07:57:35.934Z,5.47
2022-11-06T08:00:05.036Z,4.43
2022-11-06T08:02:40.659Z,5.07
2022-11-06T08:05:09.539Z,4.82
2022-11-06T08:07:58.213Z,5.15
2022-11-06T08:10:26.185Z,5.03
2022-11-06T08:12:54.119Z,5.30
2022-11-06T08:15:22.016Z,5.50
2022-11-06T08:17:49.919Z,5.03
2022-11-06T08:20:18.031Z,5.20
2022-11-06T08:22:47.496Z,5.15
2022-11-06T08:25:15.514Z,5.68
2022-11-06T08:27:43.445Z,5.30
2022-11-06T08:30:13.043Z,5.40
2022-11-06T08:32:40.959Z,5.63
2022-11-06T08:35:10.094Z,5.53
2022-11-06T08:37:38.127Z,5.38
2022-11-06T08:40:09.064Z,5.28
2022-11-06T08:42:37.413Z,4.38
2022-11-06T08:45:06.370Z,5.15
2022-11-06T08:47:34.325Z,4.32
2022-11-06T08:50:02.256Z,4.18
2022-11-06T08:52:34.108Z,4.22
2022-11-06T08:55:02.568Z,3.58
2022-11-06T08:57:31.805Z,3.45
2022-11-06T08:59:59.726Z,3.80
2022-11-06T09:02:27.756Z,4.10
2022-11-06T09:04:55.784Z,3.78
2022-11-06T09:07:23.719Z,3.22
2022-11-06T09:09:51.685Z,3.65
2022-11-06T09:12:19.583Z,4.00
2022-11-06T09:14:48.890Z,4.10
2022-11-06T09:17:18.488Z,3.80
2022-11-06T09:19:46.398Z,4.20
2022-11-06T09:22:14.470Z,3.78
2022-11-06T09:25:02.433Z,3.67
2022-11-06T09:27:30.768Z,3.78
2022-11-06T09:30:00.135Z,3.67
2022-11-06T09:32:28.057Z,3.60
2022-11-06T09:34:55.937Z,3.67
2022-11-06T09:37:23.863Z,3.20
2022-11-06T09:39:51.862Z,3.33
2022-11-06T09:42:33.858Z,2.90
2022-11-06T09:45:09.329Z,3.10
2022-11-06T09:47:41.923Z,3.67
2022-11-06T09:50:16.010Z,4.53
2022-11-06T09:52:50.674Z,4.63
2022-11-06T09:55:25.642Z,3.72
2022-11-06T09:57:57.058Z,4.07
2022-11-06T10:00:26.551Z,4.32
2022-11-06T10:02:57.743Z,3.78
2022-11-06T10:05:29.511Z,3.72
2022-11-06T10:08:00.712Z,3.50
2022-11-06T10:10:35.744Z,3.33
2022-11-06T10:13:17.829Z,3.03
2022-11-06T10:15:58.455Z,2.60
2022-11-06T10:18:35.451Z,2.35
2022-11-06T10:21:12.699Z,2.53
2022-11-06T10:23:53.353Z,2.75
2022-11-06T10:26:36.711Z,2.00
2022-11-06T10:29:41.181Z,2.50
2022-11-06T10:34:59.431Z,2.50
2022-11-06T10:37:30.994Z,2.60
2022-11-06T10:40:01.409Z,2.20
2022-11-06T10:42:52.230Z,2.13
2022-11-06T10:45:21.249Z,2.33
2022-11-06T10:47:55.114Z,2.22
2022-11-06T10:50:32.671Z,2.30
2022-11-06T10:53:08.004Z,2.63
2022-11-06T10:55:49.613Z,2.60
2022-11-06T10:58:23.281Z,2.92
2022-11-06T11:01:02.203Z,2.85
2022-11-06T11:03:33.849Z,2.60
2022-11-06T11:06:04.105Z,2.35
2022-11-06T11:08:43.025Z,2.60
2022-11-06T11:11:24.859Z,2.85
2022-11-06T11:14:15.208Z,3.00
2022-11-06T11:16:46.067Z,2.30
2022-11-06T11:19:25.513Z,3.70
2022-11-06T11:21:55.280Z,3.80
2022-11-06T11:24:23.260Z,4.07
2022-11-06T11:26:53.222Z,4.50
2022-11-06T11:29:26.314Z,4.18
2022-11-06T11:31:58.034Z,4.10
2022-11-06T11:34:30.160Z,3.55
2022-11-06T11:37:01.725Z,3.90
2022-11-06T11:39:33.498Z,4.00
2022-11-06T11:42:23.785Z,3.42
2022-11-06T11:45:24.050Z,3.53
2022-11-06T11:47:53.084Z,3.70
2022-11-06T11:50:32.982Z,3.10
2022-11-06T11:53:10.250Z,3.25
2022-11-06T11:55:42.692Z,3.13
2022-11-06T11:58:21.241Z,3.00
2022-11-06T12:00:56.766Z,2.83
2022-11-06T12:03:28.594Z,3.30
2022-11-06T12:06:07.427Z,3.00
2022-11-06T12:08:35.719Z,2.55
2022-11-06T12:11:05.467Z,3.03
2022-11-06T12:13:33.452Z,2.80
2022-11-06T12:16:05.364Z,2.40
2022-11-06T12:18:36.527Z,2.65
2022-11-06T12:21:07.380Z,2.70
2022-11-06T12:23:41.559Z,2.70
2022-11-06T12:26:26.057Z,2.53
2022-11-06T12:29:19.453Z,2.78
2022-11-06T12:31:59.030Z,2.63
2022-11-06T12:34:34.865Z,2.70
2022-11-06T12:37:18.564Z,2.60
2022-11-06T12:42:21.985Z,2.42
2022-11-06T12:44:50.025Z,2.20
2022-11-06T12:47:30.187Z,2.50
2022-11-06T12:50:29.264Z,2.60
2022-11-06T12:53:13.218Z,2.15
2022-11-06T12:55:50.407Z,2.33
2022-11-06T12:58:50.565Z,2.10
2022-11-06T13:01:26.359Z,2.15
2022-11-06T13:04:06.658Z,2.40
2022-11-06T13:07:03.688Z,2.55
2022-11-06T13:09:38.523Z,2.70
2022-11-06T13:12:17.071Z,2.35
2022-11-06T13:14:54.627Z,2.22
2022-11-06T13:17:29.079Z,2.20
2022-11-06T13:20:04.458Z,2.42
2022-11-06T13:22:37.737Z,2.30
2022-11-06T13:25:13.918Z,2.40
2022-11-06T13:27:48.582Z,2.15
2022-11-06T13:30:20.158Z,2.63
2022-11-06T13:33:00.191Z,2.70
2022-11-06T13:35:30.044Z,2.80
2022-11-06T13:37:58.581Z,2.28
2022-11-06T13:40:31.936Z,2.22
2022-11-06T13:43:06.567Z,2.33
2022-11-06T13:45:42.793Z,2.50
2022-11-06T13:48:34.581Z,2.10
2022-11-06T13:51:13.527Z,2.38
2022-11-06T13:53:52.839Z,2.13
2022-11-06T13:56:44.621Z,1.88
2022-11-06T13:59:34.329Z,2.42
2022-11-06T14:02:17.629Z,1.88
2022-11-06T14:05:29.042Z,2.00
2022-11-06T14:08:00.002Z,1.60
2022-11-06T14:10:34.118Z,2.00
2022-11-06T14:13:03.043Z,2.10
2022-11-06T14:15:35.691Z,1.98
2022-11-06T14:18:03.806Z,1.80
2022-11-06T14:20:35.439Z,2.20
2022-11-06T14:23:40.660Z,1.95
2022-11-06T14:26:12.868Z,2.20
2022-11-06T14:28:43.287Z,2.10
2022-11-06T14:31:15.079Z,2.15
2022-11-06T14:34:02.125Z,1.90
2022-11-06T14:36:34.044Z,2.03
2022-11-06T14:39:03.760Z,2.28
2022-11-06T14:42:01.028Z,2.08
2022-11-06T14:44:50.449Z,1.90
2022-11-06T14:47:40.279Z,2.30
2022-11-06T14:50:25.557Z,2.40
2022-11-06T14:52:57.621Z,2.20
2022-11-06T14:55:30.715Z,2.80
2022-11-06T14:58:13.277Z,2.30
2022-11-06T15:00:48.887Z,2.23
2022-11-06T15:03:25.508Z,2.92
2022-11-06T15:06:00.540Z,2.72
2022-11-06T15:08:54.632Z,2.60
2022-11-06T15:11:50.763Z,2.72
2022-11-06T15:15:04.224Z,2.92
2022-11-06T15:17:37.541Z,9.18
2022-11-06T15:20:24.410Z,4.13
2022-11-06T15:23:16.233Z,5.10
2022-11-06T15:25:52.239Z,12.10
2022-11-06T15:28:24.566Z,6.18
2022-11-06T15:30:58.494Z,4.25
2022-11-06T15:33:32.371Z,2.80
2022-11-06T15:36:05.547Z,2.72
2022-11-06T15:38:40.644Z,3.38
2022-11-06T15:41:14.209Z,7.55
2022-11-06T15:43:45.920Z,5.47
2022-11-06T15:46:22.791Z,4.50
2022-11-06T15:49:08.484Z,4.30
2022-11-06T15:51:40.140Z,3.97
2022-11-06T15:54:14.325Z,5.35
2022-11-06T15:56:42.801Z,5.63
2022-11-06T15:59:13.245Z,3.78
2022-11-06T16:01:42.077Z,5.78
2022-11-06T16:04:19.789Z,6.75
2022-11-06T16:06:48.521Z,4.63
2022-11-06T16:09:19.779Z,10.55
2022-11-06T16:11:50.967Z,14.98
2022-11-06T16:14:19.503Z,4.32
2022-11-06T16:16:49.985Z,4.30
2022-11-06T16:19:30.791Z,8.00
2022-11-06T16:22:03.215Z,5.05
2022-11-06T16:24:40.030Z,7.60
2022-11-06T16:27:08.886Z,5.13
2022-11-06T16:29:37.520Z,6.22
2022-11-06T16:32:08.061Z,6.28
2022-11-06T16:34:44.074Z,5.40
2022-11-06T16:37:37.929Z,5.90
2022-11-06T16:40:23.231Z,5.60
2022-11-06T16:43:02.547Z,5.68
2022-11-06T16:45:31.323Z,5.55
2022-11-06T16:48:25.014Z,5.40
2022-11-06T16:50:56.668Z,5.90
2022-11-06T16:53:28.507Z,5.90
2022-11-06T16:55:58.907Z,5.88
2022-11-06T16:58:28.661Z,6.03
2022-11-06T17:00:59.514Z,5.32
2022-11-06T17:03:30.780Z,5.25
2022-11-06T17:06:00.585Z,5.80
2022-11-06T17:08:32.652Z,5.05
2022-11-06T17:11:15.159Z,5.43
2022-11-06T17:13:44.861Z,5.72
2022-11-06T17:16:15.809Z,5.03
2022-11-06T17:18:44.076Z,6.30
2022-11-06T17:21:16.610Z,5.10
2022-11-06T17:23:46.197Z,5.63
2022-11-06T17:26:17.580Z,7.15
2022-11-06T17:28:45.926Z,7.47
2022-11-06T17:31:14.919Z,8.00
2022-11-06T17:33:43.745Z,6.50
2022-11-06T17:36:18.806Z,6.28
2022-11-06T17:38:47.079Z,7.82
2022-11-06T17:41:29.547Z,5.22
2022-11-06T17:43:58.170Z,14.05
2022-11-06T17:46:27.120Z,8.80
2022-11-06T17:48:55.369Z,10.30
2022-11-06T17:51:42.695Z,8.85
2022-11-06T17:54:11.093Z,8.20
2022-11-06T17:56:40.655Z,7.53
2022-11-06T17:59:09.684Z,6.63
2022-11-06T18:01:38.044Z,8.15
2022-11-06T18:04:07.234Z,8.27
2022-11-06T18:06:36.916Z,8.85
2022-11-06T18:09:08.139Z,8.07
2022-11-06T18:11:36.298Z,7.95
2022-11-06T18:14:04.259Z,8.48
2022-11-06T18:16:39.734Z,8.05
2022-11-06T18:19:12.755Z,7.43
2022-11-06T18:21:42.049Z,7.55
2022-11-06T18:24:10.026Z,8.00
2022-11-06T18:26:38.221Z,8.05
2022-11-06T18:29:07.362Z,6.80
2022-11-06T18:31:36.339Z,7.28
2022-11-06T18:34:05.458Z,8.00
2022-11-06T18:36:34.977Z,9.07
2022-11-06T18:39:06.594Z,8.07
2022-11-06T18:41:34.837Z,8.00
2022-11-06T18:44:03.336Z,7.68
2022-11-06T18:46:31.351Z,7.97
2022-11-06T18:48:59.359Z,6.70
2022-11-06T18:51:35.243Z,7.55
2022-11-06T18:54:07.524Z,7.60
2022-11-06T18:56:35.958Z,7.40
2022-11-06T18:59:04.810Z,6.97
2022-11-06T19:01:34.641Z,7.78
2022-11-06T19:04:04.643Z,7.90
2022-11-06T19:06:33.236Z,7.78
2022-11-06T19:09:01.330Z,8.35
2022-11-06T19:11:30.853Z,7.78
2022-11-06T19:13:58.826Z,8.13
2022-11-06T19:16:29.582Z,7.88
2022-11-06T19:21:30.128Z,7.93
2022-11-06T19:24:03.489Z,7.20
2022-11-06T19:26:35.221Z,6.70
2022-11-06T19:29:03.518Z,6.07
2022-11-06T19:31:33.025Z,6.32
2022-11-06T19:34:01.676Z,6.07
2022-11-06T19:36:30.576Z,5.93
2022-11-06T19:38:59.163Z,5.45
2022-11-06T19:41:27.543Z,4.78
2022-11-06T19:43:56.980Z,3.95
2022-11-06T19:46:29.759Z,3.83
2022-11-06T19:49:01.792Z,3.92
2022-11-06T19:51:30.663Z,3.75
2022-11-06T19:53:58.594Z,3.38
2022-11-06T19:56:26.653Z,2.83
2022-11-06T19:58:55.921Z,2.97
2022-11-06T20:01:24.015Z,3.28
2022-11-06T20:03:52.087Z,3.08
2022-11-06T20:06:19.987Z,3.05
2022-11-06T20:08:49.183Z,3.05
2022-11-06T20:11:18.041Z,4.15
2022-11-06T20:13:46.824Z,3.53
2022-11-06T20:16:17.931Z,3.47
2022-11-06T20:18:50.814Z,3.45
2022-11-06T20:21:18.974Z,3.85
2022-11-06T20:23:46.912Z,3.03
2022-11-06T20:26:14.949Z,4.00
2022-11-06T20:28:43.209Z,4.32
2022-11-06T20:31:12.691Z,3.63
2022-11-06T20:33:42.040Z,3.55
2022-11-06T20:36:18.578Z,3.45
2022-11-06T20:39:11.767Z,3.78
2022-11-06T20:41:39.729Z,3.45
2022-11-06T20:44:07.678Z,3.20
2022-11-06T20:46:35.591Z,3.10
2022-11-06T20:49:04.933Z,3.90
2022-11-06T20:51:42.933Z,3.58
2022-11-06T20:54:21.125Z,3.40
2022-11-06T20:56:50.716Z,3.80
2022-11-06T20:59:18.775Z,3.70
2022-11-06T21:01:47.192Z,3.22
2022-11-06T21:04:16.868Z,3.53
2022-11-06T21:06:45.718Z,3.08
2022-11-06T21:09:13.700Z,3.50
2022-11-06T21:11:41.721Z,3.50
2022-11-06T21:14:09.687Z,3.25
2022-11-06T21:16:38.162Z,2.70
2022-11-06T21:19:06.718Z,2.50
2022-11-06T21:21:37.748Z,2.30
2022-11-06T21:24:06.670Z,2.08
2022-11-06T21:26:36.896Z,2.30
2022-11-06T21:29:06.370Z,1.85
2022-11-06T21:31:34.565Z,1.50
2022-11-06T21:34:04.183Z,1.63
2022-11-06T21:36:33.424Z,1.40
2022-11-06T21:39:04.874Z,1.45
2022-11-06T21:41:34.448Z,1.30
2022-11-06T21:44:02.634Z,1.40
2022-11-06T21:46:30.795Z,1.13
2022-11-06T21:48:59.142Z,1.05
2022-11-06T21:51:29.159Z,1.10
2022-11-06T21:54:15.194Z,1.30
2022-11-06T21:56:45.360Z,1.10
2022-11-06T21:59:15.150Z,1.00
2022-11-06T22:01:43.383Z,1.08
2022-11-06T22:04:12.415Z,0.85
2022-11-06T22:06:42.105Z,0.70
2022-11-06T22:09:11.433Z,0.80
2022-11-06T22:11:40.965Z,0.80
2022-11-06T22:14:12.849Z,0.82
2022-11-06T22:16:43.551Z,1.00
2022-11-06T22:19:13.500Z,0.88
2022-11-06T22:21:41.969Z,0.88
2022-11-06T22:24:12.520Z,1.00
2022-11-06T22:26:40.781Z,0.70
2022-11-06T22:29:13.206Z,0.90
2022-11-06T22:31:41.652Z,0.70
2022-11-06T22:34:10.896Z,0.82
2022-11-06T22:36:39.089Z,1.00
2022-11-06T22:39:08.876Z,1.40
2022-11-06T22:41:37.189Z,1.05
2022-11-06T22:44:06.105Z,0.80
2022-11-06T22:46:36.025Z,0.90
2022-11-06T22:49:04.931Z,0.85
2022-11-06T22:51:33.613Z,1.10
2022-11-06T22:54:02.655Z,0.93
2022-11-06T22:56:31.969Z,0.80
2022-11-06T22:59:02.839Z,0.77
2022-11-06T23:01:36.154Z,0.93
2022-11-06T23:04:14.924Z,0.85
2022-11-06T23:06:44.084Z,0.60
2022-11-06T23:09:12.043Z,0.95
2022-11-06T23:11:39.996Z,0.65
2022-11-06T23:14:09.412Z,1.10
2022-11-06T23:16:55.542Z,0.90
2022-11-06T23:19:25.666Z,0.77
2022-11-06T23:22:13.752Z,0.70
2022-11-06T23:24:41.700Z,1.13
2022-11-06T23:27:10.652Z,0.90
2022-11-06T23:29:38.848Z,0.80
2022-11-06T23:32:07.240Z,0.90
2022-11-06T23:34:36.543Z,0.85
2022-11-06T23:37:04.882Z,0.77
2022-11-06T23:39:32.840Z,0.70
2022-11-06T23:42:00.749Z,0.70
2022-11-06T23:44:46.239Z,0.80
2022-11-06T23:47:14.148Z,0.73
2022-11-06T23:49:43.478Z,0.90
2022-11-06T23:52:11.450Z,1.05
2022-11-06T23:54:39.352Z,0.80
2022-11-06T23:57:08.942Z,1.13
2022-11-06T23:59:36.918Z,0.70
